sensor_id;sensor_type;location;lat;lon;timestamp;pressure;altitude;pressure_sealevel;temperature;humidity
49311;BME280;35177;45.900;5.946;2023-06-14T00:00:05;97004.41;;;16.99;88.37
49311;BME280;35177;45.900;5.946;2023-06-14T00:02:32;97001.94;;;17.06;88.16
49311;BME280;35177;45.900;5.946;2023-06-14T00:04:58;97008.66;;;17.10;88.40
49311;BME280;35177;45.900;5.946;2023-06-14T00:07:37;97014.03;;;16.92;89.25
49311;BME280;35177;45.900;5.946;2023-06-14T00:10:09;97004.03;;;16.94;88.91
49311;BME280;35177;45.900;5.946;2023-06-14T00:12:36;97005.25;;;17.00;89.07
49311;BME280;35177;45.900;5.946;2023-06-14T00:15:02;97005.34;;;16.90;89.18
49311;BME280;35177;45.900;5.946;2023-06-14T00:17:28;97011.06;;;16.95;89.10
49311;BME280;35177;45.900;5.946;2023-06-14T00:19:59;97003.91;;;16.96;89.22
49311;BME280;35177;45.900;5.946;2023-06-14T00:22:25;97009.38;;;17.12;88.69
49311;BME280;35177;45.900;5.946;2023-06-14T00:24:51;97013.41;;;17.16;89.12
49311;BME280;35177;45.900;5.946;2023-06-14T00:27:17;97010.75;;;16.98;89.25
49311;BME280;35177;45.900;5.946;2023-06-14T00:29:42;97014.53;;;17.13;89.10
49311;BME280;35177;45.900;5.946;2023-06-14T00:32:08;97006.84;;;17.10;88.71
49311;BME280;35177;45.900;5.946;2023-06-14T00:34:34;97002.53;;;17.17;88.78
49311;BME280;35177;45.900;5.946;2023-06-14T00:36:59;97005.16;;;17.09;88.95
49311;BME280;35177;45.900;5.946;2023-06-14T00:39:25;97006.31;;;16.89;89.33
49311;BME280;35177;45.900;5.946;2023-06-14T00:41:50;97003.09;;;17.03;88.64
49311;BME280;35177;45.900;5.946;2023-06-14T00:44:16;97013.41;;;16.98;89.28
49311;BME280;35177;45.900;5.946;2023-06-14T00:46:42;97010.53;;;16.92;89.71
49311;BME280;35177;45.900;5.946;2023-06-14T00:49:09;97010.38;;;16.93;89.99
49311;BME280;35177;45.900;5.946;2023-06-14T00:51:36;97003.06;;;16.95;89.47
49311;BME280;35177;45.900;5.946;2023-06-14T00:54:02;97001.16;;;16.88;89.72
49311;BME280;35177;45.900;5.946;2023-06-14T00:56:28;97002.38;;;16.93;89.76
49311;BME280;35177;45.900;5.946;2023-06-14T00:58:56;97001.53;;;16.93;89.69
49311;BME280;35177;45.900;5.946;2023-06-14T01:01:21;97002.88;;;16.97;89.66
49311;BME280;35177;45.900;5.946;2023-06-14T01:03:47;97000.75;;;17.00;89.01
49311;BME280;35177;45.900;5.946;2023-06-14T01:06:42;96997.75;;;17.03;89.29
49311;BME280;35177;45.900;5.946;2023-06-14T01:14:21;97003.31;;;16.84;89.28
49311;BME280;35177;45.900;5.946;2023-06-14T01:16:48;97011.38;;;16.92;89.09
49311;BME280;35177;45.900;5.946;2023-06-14T01:19:18;97001.66;;;16.91;89.85
49311;BME280;35177;45.900;5.946;2023-06-14T01:21:48;97002.41;;;17.01;88.22
49311;BME280;35177;45.900;5.946;2023-06-14T01:24:16;97011.28;;;17.02;88.20
49311;BME280;35177;45.900;5.946;2023-06-14T01:26:45;96998.75;;;17.02;87.46
49311;BME280;35177;45.900;5.946;2023-06-14T01:29:13;97002.38;;;16.93;87.25
49311;BME280;35177;45.900;5.946;2023-06-14T01:31:42;97006.09;;;16.83;87.80
49311;BME280;35177;45.900;5.946;2023-06-14T01:34:08;97001.78;;;16.82;88.12
49311;BME280;35177;45.900;5.946;2023-06-14T01:36:36;97003.91;;;16.96;87.43
49311;BME280;35177;45.900;5.946;2023-06-14T01:39:03;97006.78;;;17.02;87.90
49311;BME280;35177;45.900;5.946;2023-06-14T01:41:29;97008.69;;;16.92;88.47
49311;BME280;35177;45.900;5.946;2023-06-14T01:43:56;97006.41;;;16.97;88.46
49311;BME280;35177;45.900;5.946;2023-06-14T01:46:23;97010.38;;;16.93;88.66
49311;BME280;35177;45.900;5.946;2023-06-14T01:48:48;97001.09;;;17.05;87.69
49311;BME280;35177;45.900;5.946;2023-06-14T01:51:14;97004.53;;;17.15;87.37
49311;BME280;35177;45.900;5.946;2023-06-14T01:53:40;97000.13;;;17.06;88.24
49311;BME280;35177;45.900;5.946;2023-06-14T01:56:06;96998.97;;;17.09;88.36
49311;BME280;35177;45.900;5.946;2023-06-14T01:58:32;96999.75;;;17.01;88.91
49311;BME280;35177;45.900;5.946;2023-06-14T02:00:58;96997.84;;;16.94;88.91
49311;BME280;35177;45.900;5.946;2023-06-14T02:03:25;97000.97;;;16.89;89.30
49311;BME280;35177;45.900;5.946;2023-06-14T02:05:51;97007.72;;;16.93;88.52
49311;BME280;35177;45.900;5.946;2023-06-14T02:08:17;97008.78;;;16.83;89.33
49311;BME280;35177;45.900;5.946;2023-06-14T02:10:43;97014.22;;;16.91;88.98
49311;BME280;35177;45.900;5.946;2023-06-14T02:13:09;97012.97;;;16.85;89.55
49311;BME280;35177;45.900;5.946;2023-06-14T02:15:34;97012.50;;;16.90;89.38
49311;BME280;35177;45.900;5.946;2023-06-14T02:18:04;97011.84;;;16.88;89.38
49311;BME280;35177;45.900;5.946;2023-06-14T02:20:30;97010.38;;;16.93;89.55
49311;BME280;35177;45.900;5.946;2023-06-14T02:22:56;97004.34;;;16.91;89.49
49311;BME280;35177;45.900;5.946;2023-06-14T02:25:22;97015.78;;;17.01;88.49
49311;BME280;35177;45.900;5.946;2023-06-14T02:27:48;97016.47;;;17.03;88.13
49311;BME280;35177;45.900;5.946;2023-06-14T02:30:13;97017.78;;;16.99;88.41
49311;BME280;35177;45.900;5.946;2023-06-14T02:32:40;97017.84;;;16.90;89.09
49311;BME280;35177;45.900;5.946;2023-06-14T02:35:08;97013.06;;;16.76;89.58
49311;BME280;35177;45.900;5.946;2023-06-14T02:37:34;97014.19;;;16.73;89.81
49311;BME280;35177;45.900;5.946;2023-06-14T02:40:00;97012.28;;;16.83;89.21
49311;BME280;35177;45.900;5.946;2023-06-14T02:42:25;97018.53;;;16.92;89.52
49311;BME280;35177;45.900;5.946;2023-06-14T02:44:51;97017.41;;;16.94;89.87
49311;BME280;35177;45.900;5.946;2023-06-14T02:47:19;97010.91;;;16.97;89.65
49311;BME280;35177;45.900;5.946;2023-06-14T02:49:45;97009.75;;;16.99;90.11
49311;BME280;35177;45.900;5.946;2023-06-14T02:52:13;97015.78;;;17.01;89.83
49311;BME280;35177;45.900;5.946;2023-06-14T02:54:39;97020.53;;;17.07;89.59
49311;BME280;35177;45.900;5.946;2023-06-14T02:57:05;97017.06;;;17.15;89.58
49311;BME280;35177;45.900;5.946;2023-06-14T02:59:33;97019.81;;;17.23;89.17
49311;BME280;35177;45.900;5.946;2023-06-14T03:01:58;97014.44;;;17.23;89.32
49311;BME280;35177;45.900;5.946;2023-06-14T03:04:24;97014.59;;;17.21;89.17
49311;BME280;35177;45.900;5.946;2023-06-14T03:06:51;97020.28;;;17.01;90.38
49311;BME280;35177;45.900;5.946;2023-06-14T03:09:19;97022.81;;;17.02;90.21
49311;BME280;35177;45.900;5.946;2023-06-14T03:11:45;97023.19;;;17.07;90.01
49311;BME280;35177;45.900;5.946;2023-06-14T03:14:11;97023.88;;;17.09;89.67
49311;BME280;35177;45.900;5.946;2023-06-14T03:16:38;97029.09;;;16.93;90.31
49311;BME280;35177;45.900;5.946;2023-06-14T03:19:04;97032.59;;;16.94;89.66
49311;BME280;35177;45.900;5.946;2023-06-14T03:21:29;97034.66;;;16.82;89.74
49311;BME280;35177;45.900;5.946;2023-06-14T03:23:55;97033.75;;;16.74;89.70
49311;BME280;35177;45.900;5.946;2023-06-14T03:26:21;97032.44;;;16.78;90.15
49311;BME280;35177;45.900;5.946;2023-06-14T03:28:47;97034.00;;;16.62;90.28
49311;BME280;35177;45.900;5.946;2023-06-14T03:31:16;97038.94;;;16.57;90.73
49311;BME280;35177;45.900;5.946;2023-06-14T03:33:42;97038.41;;;16.72;90.10
49311;BME280;35177;45.900;5.946;2023-06-14T03:36:07;97037.56;;;16.71;89.63
49311;BME280;35177;45.900;5.946;2023-06-14T03:38:33;97042.00;;;16.62;90.71
49311;BME280;35177;45.900;5.946;2023-06-14T03:40:59;97048.88;;;16.65;89.78
49311;BME280;35177;45.900;5.946;2023-06-14T03:43:25;97045.59;;;16.53;90.60
49311;BME280;35177;45.900;5.946;2023-06-14T03:45:50;97040.78;;;16.47;89.88
49311;BME280;35177;45.900;5.946;2023-06-14T03:48:16;97041.78;;;16.56;89.53
49311;BME280;35177;45.900;5.946;2023-06-14T03:50:41;97040.38;;;16.52;90.32
49311;BME280;35177;45.900;5.946;2023-06-14T03:53:08;97044.75;;;16.53;90.64
49311;BME280;35177;45.900;5.946;2023-06-14T03:55:35;97040.06;;;16.55;90.43
49311;BME280;35177;45.900;5.946;2023-06-14T03:58:01;97036.06;;;16.41;90.62
49311;BME280;35177;45.900;5.946;2023-06-14T04:00:26;97038.06;;;16.39;91.13
49311;BME280;35177;45.900;5.946;2023-06-14T04:02:52;97037.03;;;16.40;90.83
49311;BME280;35177;45.900;5.946;2023-06-14T04:05:19;97036.59;;;16.45;90.47
49311;BME280;35177;45.900;5.946;2023-06-14T04:07:45;97040.25;;;16.53;89.78
49311;BME280;35177;45.900;5.946;2023-06-14T04:10:12;97042.09;;;16.26;90.12
49311;BME280;35177;45.900;5.946;2023-06-14T04:12:38;97046.19;;;16.38;91.07
49311;BME280;35177;45.900;5.946;2023-06-14T04:15:03;97047.09;;;16.29;90.17
49311;BME280;35177;45.900;5.946;2023-06-14T04:17:31;97050.16;;;16.34;89.76
49311;BME280;35177;45.900;5.946;2023-06-14T04:19:58;97051.06;;;16.25;89.28
49311;BME280;35177;45.900;5.946;2023-06-14T04:22:25;97056.91;;;15.83;91.20
49311;BME280;35177;45.900;5.946;2023-06-14T04:24:54;97058.56;;;15.84;92.77
49311;BME280;35177;45.900;5.946;2023-06-14T04:27:25;97054.81;;;16.32;91.14
49311;BME280;35177;45.900;5.946;2023-06-14T04:29:52;97058.72;;;16.64;89.96
49311;BME280;35177;45.900;5.946;2023-06-14T04:32:28;97062.91;;;17.02;88.56
49311;BME280;35177;45.900;5.946;2023-06-14T04:34:59;97061.09;;;17.28;87.72
49311;BME280;35177;45.900;5.946;2023-06-14T04:37:28;97065.69;;;17.36;87.63
49311;BME280;35177;45.900;5.946;2023-06-14T04:39:55;97076.44;;;17.62;86.54
49311;BME280;35177;45.900;5.946;2023-06-14T04:42:22;97075.94;;;17.58;86.59
49311;BME280;35177;45.900;5.946;2023-06-14T04:44:50;97071.44;;;17.67;86.06
49311;BME280;35177;45.900;5.946;2023-06-14T04:47:19;97072.31;;;18.01;84.87
49311;BME280;35177;45.900;5.946;2023-06-14T04:49:44;97078.50;;;18.01;84.70
49311;BME280;35177;45.900;5.946;2023-06-14T04:52:10;97069.56;;;18.19;83.92
49311;BME280;35177;45.900;5.946;2023-06-14T04:54:36;97077.38;;;18.12;83.48
49311;BME280;35177;45.900;5.946;2023-06-14T04:57:08;97082.72;;;18.12;83.71
49311;BME280;35177;45.900;5.946;2023-06-14T04:59:34;97088.72;;;17.98;84.18
49311;BME280;35177;45.900;5.946;2023-06-14T05:02:01;97089.03;;;17.95;84.30
49311;BME280;35177;45.900;5.946;2023-06-14T05:04:26;97092.94;;;18.09;84.03
49311;BME280;35177;45.900;5.946;2023-06-14T05:06:53;97084.59;;;18.45;81.63
49311;BME280;35177;45.900;5.946;2023-06-14T05:09:20;97081.38;;;18.42;81.91
49311;BME280;35177;45.900;5.946;2023-06-14T05:11:46;97093.59;;;18.44;82.59
49311;BME280;35177;45.900;5.946;2023-06-14T05:14:13;97092.00;;;18.51;82.00
49311;BME280;35177;45.900;5.946;2023-06-14T05:16:39;97093.44;;;18.12;83.43
49311;BME280;35177;45.900;5.946;2023-06-14T05:19:05;97090.38;;;17.99;83.53
49311;BME280;35177;45.900;5.946;2023-06-14T05:21:31;97091.06;;;18.01;82.84
49311;BME280;35177;45.900;5.946;2023-06-14T05:23:59;97094.38;;;17.69;84.50
49311;BME280;35177;45.900;5.946;2023-06-14T05:26:24;97095.84;;;17.64;85.01
49311;BME280;35177;45.900;5.946;2023-06-14T05:28:54;97097.22;;;17.68;85.06
49311;BME280;35177;45.900;5.946;2023-06-14T05:31:24;97091.59;;;18.13;84.61
49311;BME280;35177;45.900;5.946;2023-06-14T05:33:51;97092.09;;;18.42;83.76
49311;BME280;35177;45.900;5.946;2023-06-14T05:36:16;97087.66;;;18.58;83.18
49311;BME280;35177;45.900;5.946;2023-06-14T05:38:42;97086.81;;;18.66;82.44
49311;BME280;35177;45.900;5.946;2023-06-14T05:41:07;97091.41;;;18.90;80.71
49311;BME280;35177;45.900;5.946;2023-06-14T05:43:33;97093.25;;;18.97;80.35
49311;BME280;35177;45.900;5.946;2023-06-14T05:45:58;97089.75;;;19.05;80.49
49311;BME280;35177;45.900;5.946;2023-06-14T05:48:24;97094.94;;;19.06;79.46
49311;BME280;35177;45.900;5.946;2023-06-14T05:50:49;97090.44;;;19.07;80.49
49311;BME280;35177;45.900;5.946;2023-06-14T05:53:15;97094.94;;;19.14;79.59
49311;BME280;35177;45.900;5.946;2023-06-14T05:55:40;97091.25;;;19.15;78.49
49311;BME280;35177;45.900;5.946;2023-06-14T05:58:06;97100.47;;;19.13;78.46
49311;BME280;35177;45.900;5.946;2023-06-14T06:00:32;97104.50;;;19.09;79.71
49311;BME280;35177;45.900;5.946;2023-06-14T06:02:57;97096.78;;;19.06;78.88
49311;BME280;35177;45.900;5.946;2023-06-14T06:05:23;97096.78;;;19.06;79.39
49311;BME280;35177;45.900;5.946;2023-06-14T06:07:49;97102.66;;;19.01;79.95
49311;BME280;35177;45.900;5.946;2023-06-14T06:10:14;97104.50;;;19.17;79.19
49311;BME280;35177;45.900;5.946;2023-06-14T06:12:41;97106.16;;;19.10;78.80
49311;BME280;35177;45.900;5.946;2023-06-14T06:15:07;97102.50;;;19.19;78.03
49311;BME280;35177;45.900;5.946;2023-06-14T06:17:33;97106.56;;;19.47;77.22
49311;BME280;35177;45.900;5.946;2023-06-14T06:19:58;97103.16;;;19.05;78.88
49311;BME280;35177;45.900;5.946;2023-06-14T06:22:24;97099.28;;;18.91;79.21
49311;BME280;35177;45.900;5.946;2023-06-14T06:24:50;97103.00;;;19.22;78.49
49311;BME280;35177;45.900;5.946;2023-06-14T06:27:15;97110.22;;;19.30;78.05
49311;BME280;35177;45.900;5.946;2023-06-14T06:29:42;97111.22;;;19.13;78.49
49311;BME280;35177;45.900;5.946;2023-06-14T06:32:09;97106.84;;;19.04;77.14
49311;BME280;35177;45.900;5.946;2023-06-14T06:34:34;97117.09;;;19.24;75.29
49311;BME280;35177;45.900;5.946;2023-06-14T06:37:02;97115.25;;;19.25;73.52
49311;BME280;35177;45.900;5.946;2023-06-14T06:39:28;97114.78;;;19.46;68.81
49311;BME280;35177;45.900;5.946;2023-06-14T06:41:54;97111.91;;;19.63;69.38
49311;BME280;35177;45.900;5.946;2023-06-14T06:44:19;97107.22;;;19.73;58.53
49311;BME280;35177;45.900;5.946;2023-06-14T06:46:45;97109.22;;;19.71;56.25
49311;BME280;35177;45.900;5.946;2023-06-14T06:49:10;97111.72;;;19.89;55.41
49311;BME280;35177;45.900;5.946;2023-06-14T06:51:42;97115.22;;;20.05;56.42
49311;BME280;35177;45.900;5.946;2023-06-14T06:54:09;97123.41;;;20.20;52.27
49311;BME280;35177;45.900;5.946;2023-06-14T06:56:35;97118.88;;;20.13;48.04
49311;BME280;35177;45.900;5.946;2023-06-14T06:59:00;97122.28;;;20.06;52.33
49311;BME280;35177;45.900;5.946;2023-06-14T07:01:26;97132.66;;;20.18;55.11
49311;BME280;35177;45.900;5.946;2023-06-14T07:03:54;97125.56;;;20.17;49.14
49311;BME280;35177;45.900;5.946;2023-06-14T07:06:20;97124.09;;;20.22;49.27
49311;BME280;35177;45.900;5.946;2023-06-14T07:08:45;97127.94;;;20.20;46.98
49311;BME280;35177;45.900;5.946;2023-06-14T07:11:13;97134.16;;;20.20;45.39
49311;BME280;35177;45.900;5.946;2023-06-14T07:13:39;97125.25;;;20.20;43.82
49311;BME280;35177;45.900;5.946;2023-06-14T07:16:04;97135.97;;;20.36;43.45
49311;BME280;35177;45.900;5.946;2023-06-14T07:18:31;97136.97;;;20.43;47.35
49311;BME280;35177;45.900;5.946;2023-06-14T07:20:56;97138.00;;;20.18;44.24
49311;BME280;35177;45.900;5.946;2023-06-14T07:23:22;97136.31;;;20.17;40.57
49311;BME280;35177;45.900;5.946;2023-06-14T07:25:48;97134.00;;;20.22;42.46
49311;BME280;35177;45.900;5.946;2023-06-14T07:28:13;97146.91;;;20.26;44.81
49311;BME280;35177;45.900;5.946;2023-06-14T07:30:39;97137.19;;;20.25;41.62
49311;BME280;35177;45.900;5.946;2023-06-14T07:33:05;97134.84;;;20.22;43.66
49311;BME280;35177;45.900;5.946;2023-06-14T07:35:31;97133.16;;;20.29;42.16
49311;BME280;35177;45.900;5.946;2023-06-14T07:37:56;97126.91;;;20.37;44.95
49311;BME280;35177;45.900;5.946;2023-06-14T07:40:22;97132.28;;;20.37;47.79
49311;BME280;35177;45.900;5.946;2023-06-14T07:42:47;97144.41;;;20.33;41.93
49311;BME280;35177;45.900;5.946;2023-06-14T07:45:15;97137.84;;;20.27;43.04
49311;BME280;35177;45.900;5.946;2023-06-14T07:47:40;97143.69;;;20.39;46.72
49311;BME280;35177;45.900;5.946;2023-06-14T07:50:06;97139.97;;;20.48;46.16
49311;BME280;35177;45.900;5.946;2023-06-14T07:52:31;97138.59;;;20.60;43.68
49311;BME280;35177;45.900;5.946;2023-06-14T07:54:57;97135.72;;;20.61;44.15
49311;BME280;35177;45.900;5.946;2023-06-14T07:57:23;97139.78;;;20.57;44.86
49311;BME280;35177;45.900;5.946;2023-06-14T07:59:49;97141.09;;;20.61;41.43
49311;BME280;35177;45.900;5.946;2023-06-14T08:02:15;97140.28;;;20.53;40.39
49311;BME280;35177;45.900;5.946;2023-06-14T08:04:40;97136.91;;;20.59;41.41
49311;BME280;35177;45.900;5.946;2023-06-14T08:07:07;97135.91;;;20.60;38.44
49311;BME280;35177;45.900;5.946;2023-06-14T08:09:32;97136.38;;;20.63;38.59
49311;BME280;35177;45.900;5.946;2023-06-14T08:11:58;97128.31;;;20.63;37.92
49311;BME280;35177;45.900;5.946;2023-06-14T08:14:23;97135.16;;;20.74;39.08
49311;BME280;35177;45.900;5.946;2023-06-14T08:16:49;97136.50;;;20.70;39.47
49311;BME280;35177;45.900;5.946;2023-06-14T08:19:14;97131.50;;;20.67;36.80
49311;BME280;35177;45.900;5.946;2023-06-14T08:21:42;97134.13;;;20.75;38.85
49311;BME280;35177;45.900;5.946;2023-06-14T08:24:10;97133.78;;;20.78;39.34
49311;BME280;35177;45.900;5.946;2023-06-14T08:26:37;97136.66;;;20.76;38.49
49311;BME280;35177;45.900;5.946;2023-06-14T08:29:03;97131.94;;;20.78;39.41
49311;BME280;35177;45.900;5.946;2023-06-14T08:31:29;97142.69;;;20.78;37.91
49311;BME280;35177;45.900;5.946;2023-06-14T08:33:54;97134.25;;;20.82;37.28
49311;BME280;35177;45.900;5.946;2023-06-14T08:36:20;97132.06;;;20.85;39.08
49311;BME280;35177;45.900;5.946;2023-06-14T08:38:45;97139.78;;;20.88;37.46
49311;BME280;35177;45.900;5.946;2023-06-14T08:41:11;97135.09;;;20.82;37.55
49311;BME280;35177;45.900;5.946;2023-06-14T08:43:38;97134.56;;;20.87;37.75
49311;BME280;35177;45.900;5.946;2023-06-14T08:46:06;97134.75;;;20.85;38.39
49311;BME280;35177;45.900;5.946;2023-06-14T08:48:34;97132.06;;;20.85;39.75
49311;BME280;35177;45.900;5.946;2023-06-14T08:51:00;97140.03;;;21.01;40.64
49311;BME280;35177;45.900;5.946;2023-06-14T08:53:32;97133.31;;;21.05;37.45
49311;BME280;35177;45.900;5.946;2023-06-14T08:56:02;97134.34;;;21.04;38.30
49311;BME280;35177;45.900;5.946;2023-06-14T08:58:30;97132.50;;;21.05;37.49
49311;BME280;35177;45.900;5.946;2023-06-14T09:00:57;97128.25;;;21.10;37.87
49311;BME280;35177;45.900;5.946;2023-06-14T09:03:24;97137.78;;;21.21;37.21
49311;BME280;35177;45.900;5.946;2023-06-14T09:05:57;97135.03;;;21.29;41.10
49311;BME280;35177;45.900;5.946;2023-06-14T09:08:25;97131.78;;;21.56;37.34
49311;BME280;35177;45.900;5.946;2023-06-14T09:10:50;97131.22;;;21.61;39.22
49311;BME280;35177;45.900;5.946;2023-06-14T09:13:17;97141.06;;;21.54;37.80
49311;BME280;35177;45.900;5.946;2023-06-14T09:15:43;97138.63;;;21.44;37.14
49311;BME280;35177;45.900;5.946;2023-06-14T09:18:09;97146.63;;;21.52;36.63
49311;BME280;35177;45.900;5.946;2023-06-14T09:20:34;97140.25;;;21.68;36.62
49311;BME280;35177;45.900;5.946;2023-06-14T09:23:00;97141.47;;;21.88;34.89
49311;BME280;35177;45.900;5.946;2023-06-14T09:25:26;97140.69;;;22.02;34.82
49311;BME280;35177;45.900;5.946;2023-06-14T09:27:53;97144.00;;;21.89;36.43
49311;BME280;35177;45.900;5.946;2023-06-14T09:30:20;97141.41;;;22.10;35.41
49311;BME280;35177;45.900;5.946;2023-06-14T09:32:46;97132.72;;;22.23;34.78
49311;BME280;35177;45.900;5.946;2023-06-14T09:35:11;97137.63;;;22.34;37.12
49311;BME280;35177;45.900;5.946;2023-06-14T09:37:37;97141.34;;;22.48;33.60
49311;BME280;35177;45.900;5.946;2023-06-14T09:40:04;97135.47;;;22.59;33.44
49311;BME280;35177;45.900;5.946;2023-06-14T09:42:30;97141.81;;;22.95;32.42
49311;BME280;35177;45.900;5.946;2023-06-14T09:44:57;97129.13;;;22.96;32.02
49311;BME280;35177;45.900;5.946;2023-06-14T09:47:23;97143.19;;;23.27;32.50
49311;BME280;35177;45.900;5.946;2023-06-14T09:49:50;97144.03;;;23.27;31.14
49311;BME280;35177;45.900;5.946;2023-06-14T09:52:20;97140.28;;;23.43;30.78
49311;BME280;35177;45.900;5.946;2023-06-14T09:54:47;97140.66;;;23.61;30.34
49311;BME280;35177;45.900;5.946;2023-06-14T09:57:15;97143.06;;;23.98;31.95
49311;BME280;35177;45.900;5.946;2023-06-14T09:59:45;97138.00;;;24.10;31.17
49311;BME280;35177;45.900;5.946;2023-06-14T10:02:34;97141.56;;;24.45;30.72
49311;BME280;35177;45.900;5.946;2023-06-14T10:05:07;97141.41;;;24.53;29.13
49311;BME280;35177;45.900;5.946;2023-06-14T10:08:15;97148.47;;;24.54;30.83
49311;BME280;35177;45.900;5.946;2023-06-14T10:10:43;97145.75;;;24.81;27.89
49311;BME280;35177;45.900;5.946;2023-06-14T10:13:10;97141.81;;;24.91;27.38
49311;BME280;35177;45.900;5.946;2023-06-14T10:18:17;97132.06;;;25.63;27.42
49311;BME280;35177;45.900;5.946;2023-06-14T10:20:59;97140.19;;;25.57;26.42
49311;BME280;35177;45.900;5.946;2023-06-14T10:23:30;97136.88;;;25.68;27.86
49311;BME280;35177;45.900;5.946;2023-06-14T10:25:59;97133.34;;;26.00;29.07
49311;BME280;35177;45.900;5.946;2023-06-14T10:28:25;97120.84;;;26.05;26.85
49311;BME280;35177;45.900;5.946;2023-06-14T10:31:12;97126.28;;;26.18;26.48
49311;BME280;35177;45.900;5.946;2023-06-14T10:33:48;97122.09;;;26.16;26.44
49311;BME280;35177;45.900;5.946;2023-06-14T10:36:24;97120.03;;;26.25;24.95
49311;BME280;35177;45.900;5.946;2023-06-14T10:39:18;97114.53;;;26.51;27.81
49311;BME280;35177;45.900;5.946;2023-06-14T10:41:55;97119.28;;;26.75;26.11
49311;BME280;35177;45.900;5.946;2023-06-14T10:46:47;97116.28;;;26.96;26.29
49311;BME280;35177;45.900;5.946;2023-06-14T10:49:16;97113.22;;;27.24;23.35
49311;BME280;35177;45.900;5.946;2023-06-14T10:51:49;97117.53;;;27.00;25.46
49311;BME280;35177;45.900;5.946;2023-06-14T10:54:16;97112.00;;;27.20;24.90
49311;BME280;35177;45.900;5.946;2023-06-14T10:56:49;97109.19;;;27.33;23.92
49311;BME280;35177;45.900;5.946;2023-06-14T10:59:16;97112.06;;;26.36;24.32
49311;BME280;35177;45.900;5.946;2023-06-14T11:04:50;97112.16;;;27.31;23.53
49311;BME280;35177;45.900;5.946;2023-06-14T11:10:38;97109.19;;;27.39;24.35
49311;BME280;35177;45.900;5.946;2023-06-14T11:13:05;97103.19;;;26.73;25.01
49311;BME280;35177;45.900;5.946;2023-06-14T11:15:31;97104.84;;;27.25;24.85
49311;BME280;35177;45.900;5.946;2023-06-14T11:17:57;97107.53;;;27.38;25.76
49311;BME280;35177;45.900;5.946;2023-06-14T11:20:26;97097.66;;;27.50;25.45
49311;BME280;35177;45.900;5.946;2023-06-14T11:22:52;97102.81;;;27.83;25.04
49311;BME280;35177;45.900;5.946;2023-06-14T11:25:18;97099.66;;;27.86;24.48
49311;BME280;35177;45.900;5.946;2023-06-14T11:27:44;97086.00;;;27.68;24.50
49311;BME280;35177;45.900;5.946;2023-06-14T11:30:10;97096.31;;;27.60;26.26
49311;BME280;35177;45.900;5.946;2023-06-14T11:32:36;97095.34;;;27.47;25.35
49311;BME280;35177;45.900;5.946;2023-06-14T11:35:03;97093.91;;;27.45;25.14
49311;BME280;35177;45.900;5.946;2023-06-14T11:37:31;97088.66;;;27.06;24.52
49311;BME280;35177;45.900;5.946;2023-06-14T11:40:00;97086.66;;;27.88;24.86
49311;BME280;35177;45.900;5.946;2023-06-14T11:42:27;97092.44;;;27.98;25.09
49311;BME280;35177;45.900;5.946;2023-06-14T11:44:54;97079.41;;;27.82;24.05
49311;BME280;35177;45.900;5.946;2023-06-14T11:47:20;97087.81;;;27.49;26.79
49311;BME280;35177;45.900;5.946;2023-06-14T11:49:46;97078.88;;;27.67;27.34
49311;BME280;35177;45.900;5.946;2023-06-14T11:52:12;97085.38;;;27.91;25.10
49311;BME280;35177;45.900;5.946;2023-06-14T11:54:38;97077.38;;;27.46;26.19
49311;BME280;35177;45.900;5.946;2023-06-14T11:57:06;97075.91;;;27.50;25.28
49311;BME280;35177;45.900;5.946;2023-06-14T11:59:38;97067.38;;;27.96;24.01
49311;BME280;35177;45.900;5.946;2023-06-14T12:02:05;97079.13;;;27.34;24.92
49311;BME280;35177;45.900;5.946;2023-06-14T12:04:31;97065.81;;;27.82;24.97
49311;BME280;35177;45.900;5.946;2023-06-14T12:06:57;97057.03;;;28.05;24.10
49311;BME280;35177;45.900;5.946;2023-06-14T12:09:23;97062.16;;;28.19;25.29
49311;BME280;35177;45.900;5.946;2023-06-14T12:11:51;97065.03;;;28.25;25.98
49311;BME280;35177;45.900;5.946;2023-06-14T12:14:28;97062.63;;;28.53;26.73
49311;BME280;35177;45.900;5.946;2023-06-14T12:17:04;97054.75;;;28.81;24.12
49311;BME280;35177;45.900;5.946;2023-06-14T12:19:31;97057.78;;;27.69;23.55
49311;BME280;35177;45.900;5.946;2023-06-14T12:21:59;97055.69;;;28.14;25.10
49311;BME280;35177;45.900;5.946;2023-06-14T12:24:29;97050.84;;;28.59;26.96
49311;BME280;35177;45.900;5.946;2023-06-14T12:26:57;97056.53;;;28.75;27.46
49311;BME280;35177;45.900;5.946;2023-06-14T12:29:25;97055.06;;;28.37;22.92
49311;BME280;35177;45.900;5.946;2023-06-14T12:31:50;97050.69;;;28.72;24.95
49311;BME280;35177;45.900;5.946;2023-06-14T12:34:16;97054.47;;;28.71;23.12
49311;BME280;35177;45.900;5.946;2023-06-14T12:36:42;97047.88;;;28.97;24.40
49311;BME280;35177;45.900;5.946;2023-06-14T12:39:10;97053.56;;;28.77;25.44
49311;BME280;35177;45.900;5.946;2023-06-14T12:41:35;97051.88;;;28.94;24.72
49311;BME280;35177;45.900;5.946;2023-06-14T12:44:02;97044.44;;;29.01;26.15
49311;BME280;35177;45.900;5.946;2023-06-14T12:46:30;97044.53;;;28.58;22.43
49311;BME280;35177;45.900;5.946;2023-06-14T12:48:56;97043.94;;;28.20;25.65
49311;BME280;35177;45.900;5.946;2023-06-14T12:51:22;97040.75;;;28.23;22.54
49311;BME280;35177;45.900;5.946;2023-06-14T12:53:48;97039.63;;;28.67;24.40
49311;BME280;35177;45.900;5.946;2023-06-14T12:56:14;97039.34;;;28.39;24.17
49311;BME280;35177;45.900;5.946;2023-06-14T12:58:41;97043.47;;;28.23;23.49
49311;BME280;35177;45.900;5.946;2023-06-14T13:01:07;97050.78;;;28.04;25.06
49311;BME280;35177;45.900;5.946;2023-06-14T13:03:32;97042.66;;;28.77;24.32
49311;BME280;35177;45.900;5.946;2023-06-14T13:06:01;97040.53;;;28.43;24.58
49311;BME280;35177;45.900;5.946;2023-06-14T13:08:28;97037.06;;;28.54;24.62
49311;BME280;35177;45.900;5.946;2023-06-14T13:10:54;97045.31;;;28.65;23.58
49311;BME280;35177;45.900;5.946;2023-06-14T13:13:19;97032.41;;;28.61;25.21
49311;BME280;35177;45.900;5.946;2023-06-14T13:15:45;97035.00;;;27.88;24.47